sensor_id;sensor_type;location;lat;lon;timestamp;P1;durP1;ratioP1;P2;durP2;ratioP2
4023;SDS011;2026;51.002;13.668;2023-05-10T00:04:15;4.33;;;3.90;;
4023;SDS011;2026;51.002;13.668;2023-05-10T00:09:18;4.00;;;3.30;;
4023;SDS011;2026;51.002;13.668;2023-05-10T00:14:21;5.40;;;3.23;;
4023;SDS011;2026;51.002;13.668;2023-05-10T00:19:25;5.23;;;3.30;;
4023;SDS011;2026;51.002;13.668;2023-05-10T00:24:28;4.43;;;3.57;;
4023;SDS011;2026;51.002;13.668;2023-05-10T00:29:31;5.10;;;3.30;;
4023;SDS011;2026;51.002;13.668;2023-05-10T00:34:36;4.20;;;3.00;;
4023;SDS011;2026;51.002;13.668;2023-05-10T00:39:39;7.33;;;3.70;;
4023;SDS011;2026;51.002;13.668;2023-05-10T00:44:42;5.70;;;3.70;;
4023;SDS011;2026;51.002;13.668;2023-05-10T00:49:47;4.00;;;3.50;;
4023;SDS011;2026;51.002;13.668;2023-05-10T00:54:50;3.70;;;3.40;;
4023;SDS011;2026;51.002;13.668;2023-05-10T00:59:54;3.57;;;3.27;;
4023;SDS011;2026;51.002;13.668;2023-05-10T01:04:59;4.30;;;3.50;;
4023;SDS011;2026;51.002;13.668;2023-05-10T01:10:03;5.03;;;3.77;;
4023;SDS011;2026;51.002;13.668;2023-05-10T01:15:07;4.90;;;3.57;;
4023;SDS011;2026;51.002;13.668;2023-05-10T01:20:13;4.23;;;2.97;;
4023;SDS011;2026;51.002;13.668;2023-05-10T01:25:22;4.73;;;3.50;;
4023;SDS011;2026;51.002;13.668;2023-05-10T01:31:00;8.00;;;3.57;;
4023;SDS011;2026;51.002;13.668;2023-05-10T01:36:15;3.70;;;3.37;;
4023;SDS011;2026;51.002;13.668;2023-05-10T01:41:28;4.63;;;3.40;;
4023;SDS011;2026;51.002;13.668;2023-05-10T01:46:39;4.77;;;3.43;;
4023;SDS011;2026;51.002;13.668;2023-05-10T01:51:44;3.97;;;2.90;;
4023;SDS011;2026;51.002;13.668;2023-05-10T01:56:50;5.10;;;3.17;;
4023;SDS011;2026;51.002;13.668;2023-05-10T02:01:58;4.40;;;3.10;;
4023;SDS011;2026;51.002;13.668;2023-05-10T02:07:04;5.43;;;2.73;;
4023;SDS011;2026;51.002;13.668;2023-05-10T02:12:09;4.00;;;3.40;;
4023;SDS011;2026;51.002;13.668;2023-05-10T02:17:14;3.23;;;2.93;;
4023;SDS011;2026;51.002;13.668;2023-05-10T02:22:20;4.90;;;3.90;;
4023;SDS011;2026;51.002;13.668;2023-05-10T02:27:24;4.33;;;2.80;;
4023;SDS011;2026;51.002;13.668;2023-05-10T02:32:29;3.60;;;2.93;;
4023;SDS011;2026;51.002;13.668;2023-05-10T02:37:34;3.90;;;3.10;;
4023;SDS011;2026;51.002;13.668;2023-05-10T02:42:39;7.10;;;3.40;;
4023;SDS011;2026;51.002;13.668;2023-05-10T02:47:44;4.33;;;3.30;;
4023;SDS011;2026;51.002;13.668;2023-05-10T02:52:50;4.33;;;3.33;;
4023;SDS011;2026;51.002;13.668;2023-05-10T02:57:55;4.30;;;3.30;;
4023;SDS011;2026;51.002;13.668;2023-05-10T03:03:00;5.87;;;3.57;;
4023;SDS011;2026;51.002;13.668;2023-05-10T03:08:05;3.80;;;3.10;;
4023;SDS011;2026;51.002;13.668;2023-05-10T03:13:10;5.20;;;3.67;;
4023;SDS011;2026;51.002;13.668;2023-05-10T03:18:21;5.50;;;3.80;;
4023;SDS011;2026;51.002;13.668;2023-05-10T03:23:30;4.80;;;3.60;;
4023;SDS011;2026;51.002;13.668;2023-05-10T03:28:37;9.13;;;3.97;;
4023;SDS011;2026;51.002;13.668;2023-05-10T03:33:45;8.73;;;4.17;;
4023;SDS011;2026;51.002;13.668;2023-05-10T03:38:53;5.93;;;3.90;;
4023;SDS011;2026;51.002;13.668;2023-05-10T03:43:56;3.70;;;3.27;;
4023;SDS011;2026;51.002;13.668;2023-05-10T03:48:59;7.63;;;3.53;;
4023;SDS011;2026;51.002;13.668;2023-05-10T03:54:04;4.70;;;3.33;;
4023;SDS011;2026;51.002;13.668;2023-05-10T03:59:07;4.23;;;3.30;;
4023;SDS011;2026;51.002;13.668;2023-05-10T04:04:10;7.83;;;3.67;;
4023;SDS011;2026;51.002;13.668;2023-05-10T04:09:15;6.40;;;3.90;;
4023;SDS011;2026;51.002;13.668;2023-05-10T04:14:18;5.80;;;3.40;;
4023;SDS011;2026;51.002;13.668;2023-05-10T04:19:21;8.43;;;3.63;;
4023;SDS011;2026;51.002;13.668;2023-05-10T04:24:26;5.93;;;3.80;;
4023;SDS011;2026;51.002;13.668;2023-05-10T04:29:29;4.07;;;3.10;;
4023;SDS011;2026;51.002;13.668;2023-05-10T04:34:32;5.50;;;3.40;;
4023;SDS011;2026;51.002;13.668;2023-05-10T04:39:37;3.90;;;3.30;;
4023;SDS011;2026;51.002;13.668;2023-05-10T04:44:42;6.13;;;3.00;;
4023;SDS011;2026;51.002;13.668;2023-05-10T04:49:45;3.60;;;2.93;;
4023;SDS011;2026;51.002;13.668;2023-05-10T04:54:49;5.50;;;3.00;;
4023;SDS011;2026;51.002;13.668;2023-05-10T04:59:52;3.53;;;3.20;;
4023;SDS011;2026;51.002;13.668;2023-05-10T05:04:55;6.37;;;3.00;;
4023;SDS011;2026;51.002;13.668;2023-05-10T05:10:00;3.57;;;3.10;;
4023;SDS011;2026;51.002;13.668;2023-05-10T05:15:03;4.83;;;3.00;;
4023;SDS011;2026;51.002;13.668;2023-05-10T05:20:10;5.73;;;3.00;;
4023;SDS011;2026;51.002;13.668;2023-05-10T05:25:16;5.03;;;3.10;;
4023;SDS011;2026;51.002;13.668;2023-05-10T05:30:20;6.30;;;2.67;;
4023;SDS011;2026;51.002;13.668;2023-05-10T05:35:23;5.23;;;3.00;;
4023;SDS011;2026;51.002;13.668;2023-05-10T05:40:27;4.67;;;3.13;;
4023;SDS011;2026;51.002;13.668;2023-05-10T05:45:30;3.40;;;3.10;;
4023;SDS011;2026;51.002;13.668;2023-05-10T05:50:33;5.30;;;3.07;;
4023;SDS011;2026;51.002;13.668;2023-05-10T05:55:37;4.17;;;2.90;;
4023;SDS011;2026;51.002;13.668;2023-05-10T06:00:40;4.70;;;3.43;;
4023;SDS011;2026;51.002;13.668;2023-05-10T06:05:43;3.47;;;2.83;;
4023;SDS011;2026;51.002;13.668;2023-05-10T06:10:47;6.00;;;3.30;;
4023;SDS011;2026;51.002;13.668;2023-05-10T06:15:50;4.87;;;3.20;;
4023;SDS011;2026;51.002;13.668;2023-05-10T06:20:53;5.50;;;3.80;;
4023;SDS011;2026;51.002;13.668;2023-05-10T06:25:57;3.30;;;2.90;;
4023;SDS011;2026;51.002;13.668;2023-05-10T06:31:00;4.70;;;3.07;;
4023;SDS011;2026;51.002;13.668;2023-05-10T06:36:04;5.13;;;3.27;;
4023;SDS011;2026;51.002;13.668;2023-05-10T06:41:08;3.57;;;3.17;;
4023;SDS011;2026;51.002;13.668;2023-05-10T06:46:11;5.00;;;2.90;;
4023;SDS011;2026;51.002;13.668;2023-05-10T06:51:14;3.47;;;3.17;;
4023;SDS011;2026;51.002;13.668;2023-05-10T06:56:18;4.77;;;2.90;;
4023;SDS011;2026;51.002;13.668;2023-05-10T07:01:22;4.87;;;3.20;;
4023;SDS011;2026;51.002;13.668;2023-05-10T07:06:25;5.60;;;3.30;;
4023;SDS011;2026;51.002;13.668;2023-05-10T07:11:35;5.40;;;3.30;;
4023;SDS011;2026;51.002;13.668;2023-05-10T07:16:38;7.10;;;3.40;;
4023;SDS011;2026;51.002;13.668;2023-05-10T07:21:42;4.70;;;3.17;;
4023;SDS011;2026;51.002;13.668;2023-05-10T07:26:46;6.73;;;3.40;;
4023;SDS011;2026;51.002;13.668;2023-05-10T07:31:49;5.40;;;2.80;;
4023;SDS011;2026;51.002;13.668;2023-05-10T07:36:52;4.07;;;3.50;;
4023;SDS011;2026;51.002;13.668;2023-05-10T07:41:56;3.37;;;2.90;;
4023;SDS011;2026;51.002;13.668;2023-05-10T07:46:59;6.77;;;3.27;;
4023;SDS011;2026;51.002;13.668;2023-05-10T07:52:02;6.50;;;3.30;;
4023;SDS011;2026;51.002;13.668;2023-05-10T07:57:07;4.00;;;3.40;;
4023;SDS011;2026;51.002;13.668;2023-05-10T08:02:10;4.60;;;3.60;;
4023;SDS011;2026;51.002;13.668;2023-05-10T08:07:13;4.87;;;3.27;;
4023;SDS011;2026;51.002;13.668;2023-05-10T08:12:17;7.13;;;3.30;;
4023;SDS011;2026;51.002;13.668;2023-05-10T08:17:20;8.53;;;3.80;;
4023;SDS011;2026;51.002;13.668;2023-05-10T08:22:25;9.40;;;4.10;;
4023;SDS011;2026;51.002;13.668;2023-05-10T08:27:29;7.43;;;4.23;;
4023;SDS011;2026;51.002;13.668;2023-05-10T08:32:32;5.40;;;3.50;;
4023;SDS011;2026;51.002;13.668;2023-05-10T08:37:36;6.10;;;3.80;;
4023;SDS011;2026;51.002;13.668;2023-05-10T08:42:41;3.80;;;3.40;;
4023;SDS011;2026;51.002;13.668;2023-05-10T08:47:49;5.57;;;4.37;;
4023;SDS011;2026;51.002;13.668;2023-05-10T08:52:55;5.67;;;3.50;;
4023;SDS011;2026;51.002;13.668;2023-05-10T08:58:03;7.83;;;3.60;;
4023;SDS011;2026;51.002;13.668;2023-05-10T09:03:07;4.03;;;3.63;;
4023;SDS011;2026;51.002;13.668;2023-05-10T09:08:10;7.73;;;4.13;;
4023;SDS011;2026;51.002;13.668;2023-05-10T09:13:15;4.53;;;3.30;;
4023;SDS011;2026;51.002;13.668;2023-05-10T09:18:19;5.30;;;3.57;;
4023;SDS011;2026;51.002;13.668;2023-05-10T09:23:22;6.27;;;3.90;;
4023;SDS011;2026;51.002;13.668;2023-05-10T09:28:34;5.67;;;3.80;;
4023;SDS011;2026;51.002;13.668;2023-05-10T09:33:53;4.93;;;3.40;;
4023;SDS011;2026;51.002;13.668;2023-05-10T09:38:56;6.67;;;4.50;;
4023;SDS011;2026;51.002;13.668;2023-05-10T09:44:01;8.10;;;4.10;;
4023;SDS011;2026;51.002;13.668;2023-05-10T09:49:04;5.47;;;3.90;;
4023;SDS011;2026;51.002;13.668;2023-05-10T09:54:08;5.50;;;3.97;;
4023;SDS011;2026;51.002;13.668;2023-05-10T09:59:13;7.00;;;5.33;;
4023;SDS011;2026;51.002;13.668;2023-05-10T10:04:16;9.90;;;4.80;;
4023;SDS011;2026;51.002;13.668;2023-05-10T10:09:19;7.53;;;4.00;;
4023;SDS011;2026;51.002;13.668;2023-05-10T10:14:24;5.00;;;4.40;;
4023;SDS011;2026;51.002;13.668;2023-05-10T10:19:27;6.27;;;4.53;;
4023;SDS011;2026;51.002;13.668;2023-05-10T10:24:30;6.23;;;3.80;;
4023;SDS011;2026;51.002;13.668;2023-05-10T10:29:36;4.20;;;3.80;;
4023;SDS011;2026;51.002;13.668;2023-05-10T10:34:47;5.53;;;4.27;;
4023;SDS011;2026;51.002;13.668;2023-05-10T10:39:50;7.00;;;4.37;;
4023;SDS011;2026;51.002;13.668;2023-05-10T10:45:01;5.03;;;4.53;;
4023;SDS011;2026;51.002;13.668;2023-05-10T10:50:15;5.97;;;4.00;;
4023;SDS011;2026;51.002;13.668;2023-05-10T10:55:19;4.90;;;4.33;;
4023;SDS011;2026;51.002;13.668;2023-05-10T11:00:26;5.10;;;4.00;;
4023;SDS011;2026;51.002;13.668;2023-05-10T11:10:50;5.10;;;4.50;;
4023;SDS011;2026;51.002;13.668;2023-05-10T11:16:19;4.73;;;4.30;;
4023;SDS011;2026;51.002;13.668;2023-05-10T11:21:25;4.37;;;3.90;;
4023;SDS011;2026;51.002;13.668;2023-05-10T11:26:30;5.43;;;4.93;;
4023;SDS011;2026;51.002;13.668;2023-05-10T11:31:38;5.07;;;4.00;;
4023;SDS011;2026;51.002;13.668;2023-05-10T11:36:45;5.83;;;5.23;;
4023;SDS011;2026;51.002;13.668;2023-05-10T11:41:55;7.10;;;5.10;;
4023;SDS011;2026;51.002;13.668;2023-05-10T11:47:00;7.37;;;4.50;;
4023;SDS011;2026;51.002;13.668;2023-05-10T11:52:03;5.13;;;4.60;;
4023;SDS011;2026;51.002;13.668;2023-05-10T11:57:07;6.47;;;4.77;;
4023;SDS011;2026;51.002;13.668;2023-05-10T12:02:11;7.50;;;4.83;;
4023;SDS011;2026;51.002;13.668;2023-05-10T12:07:15;6.57;;;4.47;;
4023;SDS011;2026;51.002;13.668;2023-05-10T12:12:18;5.33;;;4.70;;
4023;SDS011;2026;51.002;13.668;2023-05-10T12:17:22;5.60;;;5.10;;
4023;SDS011;2026;51.002;13.668;2023-05-10T12:22:30;15.60;;;5.07;;
4023;SDS011;2026;51.002;13.668;2023-05-10T12:27:36;6.63;;;5.10;;
4023;SDS011;2026;51.002;13.668;2023-05-10T12:32:41;5.50;;;4.57;;
4023;SDS011;2026;51.002;13.668;2023-05-10T12:37:44;5.87;;;4.97;;
4023;SDS011;2026;51.002;13.668;2023-05-10T12:42:47;6.97;;;4.30;;
4023;SDS011;2026;51.002;13.668;2023-05-10T12:47:51;5.67;;;5.10;;
4023;SDS011;2026;51.002;13.668;2023-05-10T12:52:54;7.50;;;4.80;;
4023;SDS011;2026;51.002;13.668;2023-05-10T12:57:57;5.67;;;4.90;;
4023;SDS011;2026;51.002;13.668;2023-05-10T13:03:02;5.87;;;4.67;;
4023;SDS011;2026;51.002;13.668;2023-05-10T13:08:05;6.17;;;5.17;;
4023;SDS011;2026;51.002;13.668;2023-05-10T13:13:08;6.43;;;4.20;;
4023;SDS011;2026;51.002;13.668;2023-05-10T13:18:12;5.73;;;3.90;;
4023;SDS011;2026;51.002;13.668;2023-05-10T13:23:15;4.60;;;4.10;;
4023;SDS011;2026;51.002;13.668;2023-05-10T13:28:18;6.20;;;4.33;;
4023;SDS011;2026;51.002;13.668;2023-05-10T13:33:23;7.27;;;5.23;;
4023;SDS011;2026;51.002;13.668;2023-05-10T13:38:26;5.10;;;4.60;;
4023;SDS011;2026;51.002;13.668;2023-05-10T13:43:29;6.90;;;4.50;;
4023;SDS011;2026;51.002;13.668;2023-05-10T13:48:33;4.60;;;4.17;;
4023;SDS011;2026;51.002;13.668;2023-05-10T13:53:39;6.17;;;4.20;;
4023;SDS011;2026;51.002;13.668;2023-05-10T13:58:42;4.90;;;4.40;;
4023;SDS011;2026;51.002;13.668;2023-05-10T14:03:47;4.77;;;4.20;;
4023;SDS011;2026;51.002;13.668;2023-05-10T14:08:50;4.70;;;4.30;;
4023;SDS011;2026;51.002;13.668;2023-05-10T14:13:53;5.70;;;4.20;;
4023;SDS011;2026;51.002;13.668;2023-05-10T14:18:57;10.13;;;4.97;;
4023;SDS011;2026;51.002;13.668;2023-05-10T14:24:00;9.77;;;5.60;;
4023;SDS011;2026;51.002;13.668;2023-05-10T14:29:03;7.53;;;5.43;;
4023;SDS011;2026;51.002;13.668;2023-05-10T14:34:07;9.03;;;5.10;;
4023;SDS011;2026;51.002;13.668;2023-05-10T14:39:10;8.10;;;5.20;;
4023;SDS011;2026;51.002;13.668;2023-05-10T14:44:14;4.43;;;3.97;;
4023;SDS011;2026;51.002;13.668;2023-05-10T14:49:19;4.57;;;3.47;;
4023;SDS011;2026;51.002;13.668;2023-05-10T14:54:24;4.13;;;3.00;;
4023;SDS011;2026;51.002;13.668;2023-05-10T14:59:27;4.73;;;3.17;;
4023;SDS011;2026;51.002;13.668;2023-05-10T15:04:32;4.27;;;3.70;;
4023;SDS011;2026;51.002;13.668;2023-05-10T15:09:35;3.90;;;3.50;;
4023;SDS011;2026;51.002;13.668;2023-05-10T15:14:38;3.73;;;3.20;;
4023;SDS011;2026;51.002;13.668;2023-05-10T15:19:42;4.20;;;3.77;;
4023;SDS011;2026;51.002;13.668;2023-05-10T15:24:45;4.77;;;4.13;;
4023;SDS011;2026;51.002;13.668;2023-05-10T15:29:48;4.50;;;3.50;;
4023;SDS011;2026;51.002;13.668;2023-05-10T15:34:53;4.20;;;3.60;;
4023;SDS011;2026;51.002;13.668;2023-05-10T15:39:56;5.70;;;3.80;;
4023;SDS011;2026;51.002;13.668;2023-05-10T15:45:04;4.13;;;3.27;;
4023;SDS011;2026;51.002;13.668;2023-05-10T15:50:10;4.83;;;4.07;;
4023;SDS011;2026;51.002;13.668;2023-05-10T15:55:14;5.47;;;4.23;;
4023;SDS011;2026;51.002;13.668;2023-05-10T16:00:17;5.20;;;4.37;;
4023;SDS011;2026;51.002;13.668;2023-05-10T16:05:22;6.40;;;4.53;;
4023;SDS011;2026;51.002;13.668;2023-05-10T16:10:25;6.33;;;4.40;;
4023;SDS011;2026;51.002;13.668;2023-05-10T16:15:28;5.77;;;4.73;;
4023;SDS011;2026;51.002;13.668;2023-05-10T16:20:32;7.37;;;5.07;;
4023;SDS011;2026;51.002;13.668;2023-05-10T16:25:35;4.80;;;4.30;;
4023;SDS011;2026;51.002;13.668;2023-05-10T16:30:38;5.13;;;4.63;;
4023;SDS011;2026;51.002;13.668;2023-05-10T16:35:43;6.57;;;4.80;;
4023;SDS011;2026;51.002;13.668;2023-05-10T16:40:46;5.60;;;4.63;;
4023;SDS011;2026;51.002;13.668;2023-05-10T16:45:49;6.20;;;4.97;;
4023;SDS011;2026;51.002;13.668;2023-05-10T16:50:55;6.80;;;5.90;;
4023;SDS011;2026;51.002;13.668;2023-05-10T16:55:58;7.00;;;4.73;;
4023;SDS011;2026;51.002;13.668;2023-05-10T17:01:01;6.17;;;4.73;;
4023;SDS011;2026;51.002;13.668;2023-05-10T17:06:06;6.20;;;5.20;;
4023;SDS011;2026;51.002;13.668;2023-05-10T17:11:09;7.20;;;5.03;;
4023;SDS011;2026;51.002;13.668;2023-05-10T17:16:12;10.67;;;4.90;;
4023;SDS011;2026;51.002;13.668;2023-05-10T17:21:16;9.10;;;5.07;;
4023;SDS011;2026;51.002;13.668;2023-05-10T17:26:19;10.10;;;5.10;;
4023;SDS011;2026;51.002;13.668;2023-05-10T17:31:22;6.30;;;4.43;;
4023;SDS011;2026;51.002;13.668;2023-05-10T17:36:27;6.17;;;4.70;;
4023;SDS011;2026;51.002;13.668;2023-05-10T17:41:30;5.20;;;4.70;;
4023;SDS011;2026;51.002;13.668;2023-05-10T17:46:33;4.57;;;4.17;;
4023;SDS011;2026;51.002;13.668;2023-05-10T17:51:38;6.20;;;3.60;;
4023;SDS011;2026;51.002;13.668;2023-05-10T17:56:41;6.30;;;3.30;;
4023;SDS011;2026;51.002;13.668;2023-05-10T18:01:45;4.10;;;3.70;;
4023;SDS011;2026;51.002;13.668;2023-05-10T18:06:49;4.87;;;3.47;;
4023;SDS011;2026;51.002;13.668;2023-05-10T18:11:52;4.27;;;3.53;;
4023;SDS011;2026;51.002;13.668;2023-05-10T18:16:55;4.63;;;3.77;;
4023;SDS011;2026;51.002;13.668;2023-05-10T18:21:59;5.10;;;3.80;;
4023;SDS011;2026;51.002;13.668;2023-05-10T18:27:02;3.73;;;3.33;;
4023;SDS011;2026;51.002;13.668;2023-05-10T18:32:06;5.07;;;3.50;;
4023;SDS011;2026;51.002;13.668;2023-05-10T18:37:10;3.37;;;3.07;;
4023;SDS011;2026;51.002;13.668;2023-05-10T18:42:14;3.30;;;3.00;;
4023;SDS011;2026;51.002;13.668;2023-05-10T18:47:17;3.37;;;3.07;;
4023;SDS011;2026;51.002;13.668;2023-05-10T18:52:21;3.87;;;2.60;;
4023;SDS011;2026;51.002;13.668;2023-05-10T18:57:24;3.87;;;2.83;;
4023;SDS011;2026;51.002;13.668;2023-05-10T19:02:27;5.13;;;3.60;;
4023;SDS011;2026;51.002;13.668;2023-05-10T19:07:31;3.27;;;2.80;;
4023;SDS011;2026;51.002;13.668;2023-05-10T19:12:35;5.20;;;3.53;;
4023;SDS011;2026;51.002;13.668;2023-05-10T19:17:38;4.40;;;3.20;;
4023;SDS011;2026;51.002;13.668;2023-05-10T19:22:44;4.50;;;2.77;;
4023;SDS011;2026;51.002;13.668;2023-05-10T19:28:08;3.60;;;3.00;;
4023;SDS011;2026;51.002;13.668;2023-05-10T19:33:11;3.47;;;2.90;;
4023;SDS011;2026;51.002;13.668;2023-05-10T19:38:16;3.47;;;3.00;;
4023;SDS011;2026;51.002;13.668;2023-05-10T19:43:21;4.27;;;3.10;;
4023;SDS011;2026;51.002;13.668;2023-05-10T19:48:25;4.77;;;3.67;;
4023;SDS011;2026;51.002;13.668;2023-05-10T19:53:30;4.77;;;4.07;;
4023;SDS011;2026;51.002;13.668;2023-05-10T19:58:33;3.00;;;2.70;;
4023;SDS011;2026;51.002;13.668;2023-05-10T20:03:36;10.90;;;7.67;;
4023;SDS011;2026;51.002;13.668;2023-05-10T20:08:41;3.67;;;2.90;;
4023;SDS011;2026;51.002;13.668;2023-05-10T20:13:44;3.40;;;3.10;;
4023;SDS011;2026;51.002;13.668;2023-05-10T20:18:46;4.83;;;3.37;;
4023;SDS011;2026;51.002;13.668;2023-05-10T20:23:51;5.00;;;3.77;;
4023;SDS011;2026;51.002;13.668;2023-05-10T20:28:54;5.70;;;3.53;;
4023;SDS011;2026;51.002;13.668;2023-05-10T20:33:57;4.77;;;3.60;;
4023;SDS011;2026;51.002;13.668;2023-05-10T20:39:01;4.87;;;3.60;;
4023;SDS011;2026;51.002;13.668;2023-05-10T20:44:04;5.53;;;3.30;;
4023;SDS011;2026;51.002;13.668;2023-05-10T20:49:07;5.40;;;4.20;;
4023;SDS011;2026;51.002;13.668;2023-05-10T20:54:11;8.53;;;4.10;;
4023;SDS011;2026;51.002;13.668;2023-05-10T20:59:14;4.57;;;3.77;;
4023;SDS011;2026;51.002;13.668;2023-05-10T21:04:18;4.83;;;3.93;;
4023;SDS011;2026;51.002;13.668;2023-05-10T21:09:22;4.33;;;3.40;;
4023;SDS011;2026;51.002;13.668;2023-05-10T21:14:25;4.00;;;3.57;;
4023;SDS011;2026;51.002;13.668;2023-05-10T21:19:28;5.37;;;3.60;;
4023;SDS011;2026;51.002;13.668;2023-05-10T21:24:33;4.67;;;3.40;;
4023;SDS011;2026;51.002;13.668;2023-05-10T21:29:36;3.30;;;3.00;;
4023;SDS011;2026;51.002;13.668;2023-05-10T21:34:39;3.50;;;3.13;;
4023;SDS011;2026;51.002;13.668;2023-05-10T21:39:43;4.63;;;3.70;;
4023;SDS011;2026;51.002;13.668;2023-05-10T21:44:46;4.63;;;3.73;;
4023;SDS011;2026;51.002;13.668;2023-05-10T21:49:49;4.77;;;3.40;;
4023;SDS011;2026;51.002;13.668;2023-05-10T21:54:54;5.10;;;3.40;;
4023;SDS011;2026;51.002;13.668;2023-05-10T21:59:57;3.90;;;3.50;;
4023;SDS011;2026;51.002;13.668;2023-05-10T22:05:00;3.50;;;3.20;;
4023;SDS011;2026;51.002;13.668;2023-05-10T22:10:04;4.93;;;3.60;;
4023;SDS011;2026;51.002;13.668;2023-05-10T22:15:08;5.60;;;3.90;;
4023;SDS011;2026;51.002;13.668;2023-05-10T22:20:12;3.87;;;3.37;;
4023;SDS011;2026;51.002;13.668;2023-05-10T22:25:17;4.63;;;3.97;;
4023;SDS011;2026;51.002;13.668;2023-05-10T22:30:20;4.50;;;3.87;;
4023;SDS011;2026;51.002;13.668;2023-05-10T22:35:23;6.53;;;4.17;;
4023;SDS011;2026;51.002;13.668;2023-05-10T22:40:27;4.70;;;3.80;;
4023;SDS011;2026;51.002;13.668;2023-05-10T22:45:30;5.53;;;3.53;;
4023;SDS011;2026;51.002;13.668;2023-05-10T22:50:33;4.10;;;3.70;;
4023;SDS011;2026;51.002;13.668;2023-05-10T22:55:38;7.90;;;4.17;;
4023;SDS011;2026;51.002;13.668;2023-05-10T23:00:41;5.93;;;4.03;;
4023;SDS011;2026;51.002;13.668;2023-05-10T23:05:44;4.07;;;3.67;;
4023;SDS011;2026;51.002;13.668;2023-05-10T23:10:48;4.87;;;4.00;;
4023;SDS011;2026;51.002;13.668;2023-05-10T23:15:52;4.40;;;3.80;;
4023;SDS011;2026;51.002;13.668;2023-05-10T23:20:54;4.30;;;3.90;;
4023;SDS011;2026;51.002;13.668;2023-05-10T23:25:59;7.07;;;4.33;;
4023;SDS011;2026;51.002;13.668;2023-05-10T23:31:02;6.00;;;4.60;;
4023;SDS011;2026;51.002;13.668;2023-05-10T23:36:05;5.27;;;4.10;;
4023;SDS011;2026;51.002;13.668;2023-05-10T23:41:09;4.90;;;4.37;;
4023;SDS011;2026;51.002;13.668;2023-05-10T23:46:12;4.17;;;3.77;;
4023;SDS011;2026;51.002;13.668;2023-05-10T23:51:15;5.30;;;4.80;;
4023;SDS011;2026;51.002;13.668;2023-05-10T23:56:20;5.00;;;4.43;;
